createdAt,value
2022-12-26T00:00:54.024Z,16.87
2022-12-26T00:03:23.896Z,15.70
2022-12-26T00:05:53.692Z,15.53
2022-12-26T00:08:21.852Z,20.90
2022-12-26T00:10:50.630Z,24.00
2022-12-26T00:13:39.501Z,15.70
2022-12-26T00:16:09.428Z,15.30
2022-12-26T00:18:44.861Z,14.37
2022-12-26T00:21:16.796Z,13.63
2022-12-26T00:23:45.657Z,14.13
2022-12-26T00:26:15.968Z,15.47
2022-12-26T00:28:44.920Z,16.43
2022-12-26T00:31:15.881Z,14.93
2022-12-26T00:33:44.185Z,16.10
2022-12-26T00:36:15.945Z,15.87
2022-12-26T00:38:45.234Z,15.77
2022-12-26T00:41:14.781Z,14.87
2022-12-26T00:43:43.469Z,17.37
2022-12-26T00:46:11.632Z,15.90
2022-12-26T00:48:40.208Z,14.83
2022-12-26T00:51:08.688Z,18.33
2022-12-26T00:53:38.573Z,16.50
2022-12-26T00:56:07.490Z,15.50
2022-12-26T00:58:36.075Z,16.00
2022-12-26T01:01:09.818Z,14.93
2022-12-26T01:03:38.025Z,14.70
2022-12-26T01:06:06.404Z,14.20
2022-12-26T01:08:34.605Z,14.67
2022-12-26T01:11:10.584Z,15.07
2022-12-26T01:13:39.488Z,14.73
2022-12-26T01:16:08.860Z,15.77
2022-12-26T01:18:38.190Z,14.93
2022-12-26T01:21:09.085Z,16.53
2022-12-26T01:23:37.224Z,15.63
2022-12-26T01:26:18.773Z,14.77
2022-12-26T01:28:48.448Z,14.67
2022-12-26T01:31:17.043Z,14.47
2022-12-26T01:33:45.323Z,16.87
2022-12-26T01:36:13.971Z,15.17
2022-12-26T01:38:42.516Z,20.63
2022-12-26T01:41:20.461Z,18.27
2022-12-26T01:43:57.086Z,15.57
2022-12-26T01:46:30.599Z,16.77
2022-12-26T01:49:01.929Z,15.27
2022-12-26T01:51:36.461Z,15.17
2022-12-26T01:54:38.613Z,16.17
2022-12-26T01:56:56.399Z,13.97
2022-12-26T01:59:30.340Z,16.13
2022-12-26T02:02:01.218Z,15.47
2022-12-26T02:04:51.599Z,15.23
2022-12-26T02:07:19.697Z,15.30
2022-12-26T02:09:47.918Z,14.67
2022-12-26T02:12:34.205Z,14.30
2022-12-26T02:15:08.934Z,13.63
2022-12-26T02:17:38.563Z,17.33
2022-12-26T02:20:18.049Z,13.87
2022-12-26T02:23:28.488Z,14.07
2022-12-26T02:26:21.730Z,13.83
2022-12-26T02:29:27.357Z,13.40
2022-12-26T02:32:04.819Z,14.50
2022-12-26T02:34:41.640Z,13.00
2022-12-26T02:37:24.540Z,13.57
2022-12-26T02:40:30.573Z,13.33
2022-12-26T02:43:04.355Z,13.57
2022-12-26T02:45:57.871Z,13.47
2022-12-26T02:48:32.866Z,20.50
2022-12-26T02:51:30.372Z,14.83
2022-12-26T02:54:26.459Z,14.80
2022-12-26T02:57:16.844Z,15.70
2022-12-26T03:00:11.185Z,15.52
2022-12-26T03:03:01.663Z,16.25
2022-12-26T03:05:54.672Z,13.20
2022-12-26T03:08:47.645Z,13.53
2022-12-26T03:11:33.313Z,13.52
2022-12-26T03:14:13.130Z,11.10
2022-12-26T03:16:59.110Z,12.10
2022-12-26T03:19:30.893Z,12.03
2022-12-26T03:22:22.839Z,13.27
2022-12-26T03:25:05.273Z,13.07
2022-12-26T03:27:34.007Z,11.73
2022-12-26T03:30:19.403Z,11.23
2022-12-26T03:32:47.413Z,11.88
2022-12-26T03:35:16.443Z,11.20
2022-12-26T03:37:54.219Z,11.18
2022-12-26T03:40:55.419Z,10.95
2022-12-26T03:49:13.756Z,10.43
2022-12-26T03:57:39.311Z,9.57
2022-12-26T04:00:29.015Z,9.10
2022-12-26T04:03:22.069Z,9.02
2022-12-26T04:06:11.883Z,8.02
2022-12-26T04:09:04.373Z,8.65
2022-12-26T04:11:53.762Z,7.40
2022-12-26T04:14:54.952Z,7.43
2022-12-26T04:17:56.317Z,7.28
2022-12-26T04:20:38.145Z,6.60
2022-12-26T04:23:29.376Z,7.03
2022-12-26T04:26:21.572Z,7.18
2022-12-26T04:29:08.383Z,6.60
2022-12-26T04:32:01.066Z,7.53
2022-12-26T04:34:52.263Z,6.90
2022-12-26T04:37:41.733Z,8.47
2022-12-26T04:40:32.717Z,7.90
2022-12-26T04:43:48.181Z,8.17
2022-12-26T04:46:09.444Z,10.10
2022-12-26T04:49:02.558Z,10.53
2022-12-26T04:51:30.888Z,11.17
2022-12-26T04:53:58.906Z,11.27
2022-12-26T04:56:27.486Z,10.93
2022-12-26T04:58:55.542Z,10.80
2022-12-26T05:01:42.791Z,11.23
2022-12-26T05:04:32.186Z,12.10
2022-12-26T05:07:19.523Z,11.80
2022-12-26T05:09:49.693Z,10.87
2022-12-26T05:12:17.739Z,12.20
2022-12-26T05:14:46.158Z,11.53
2022-12-26T05:17:33.092Z,10.98
2022-12-26T05:20:18.541Z,11.90
2022-12-26T05:23:06.457Z,11.82
2022-12-26T05:26:01.759Z,11.90
2022-12-26T05:28:45.585Z,12.57
2022-12-26T05:31:15.658Z,12.40
2022-12-26T05:34:03.654Z,13.53
2022-12-26T05:36:35.643Z,13.10
2022-12-26T05:39:03.791Z,12.33
2022-12-26T05:41:31.874Z,13.07
2022-12-26T05:44:00.111Z,14.17
2022-12-26T05:46:28.886Z,14.63
2022-12-26T05:48:58.350Z,16.43
2022-12-26T05:51:26.637Z,14.97
2022-12-26T05:53:54.732Z,14.00
2022-12-26T05:56:23.588Z,14.43
2022-12-26T05:58:56.080Z,14.07
2022-12-26T06:01:24.493Z,15.68
2022-12-26T06:03:53.865Z,16.87
2022-12-26T06:06:25.691Z,15.50
2022-12-26T06:08:54.909Z,15.57
2022-12-26T06:11:23.156Z,16.60
2022-12-26T06:13:51.362Z,14.82
2022-12-26T06:16:19.742Z,16.67
2022-12-26T06:18:48.303Z,17.27
2022-12-26T06:21:18.698Z,16.97
2022-12-26T06:23:48.768Z,17.37
2022-12-26T06:26:18.015Z,17.42
2022-12-26T06:28:47.575Z,17.23
2022-12-26T06:31:20.376Z,16.33
2022-12-26T06:33:49.250Z,16.57
2022-12-26T06:36:21.926Z,16.40
2022-12-26T06:38:51.759Z,16.00
2022-12-26T06:41:21.928Z,16.87
2022-12-26T06:43:50.376Z,16.43
2022-12-26T06:46:20.586Z,17.53
2022-12-26T06:48:48.658Z,20.40
2022-12-26T06:51:19.363Z,17.23
2022-12-26T06:53:48.477Z,18.53
2022-12-26T06:56:20.215Z,18.57
2022-12-26T06:58:48.513Z,20.07
2022-12-26T07:01:18.503Z,19.73
2022-12-26T07:03:51.547Z,19.17
2022-12-26T07:06:24.777Z,20.43
2022-12-26T07:08:54.031Z,19.80
2022-12-26T07:11:25.049Z,21.47
2022-12-26T07:13:54.147Z,21.17
2022-12-26T07:16:23.623Z,20.73
2022-12-26T07:18:54.021Z,21.07
2022-12-26T07:21:22.521Z,20.83
2022-12-26T07:23:50.909Z,20.53
2022-12-26T07:26:19.062Z,20.30
2022-12-26T07:28:48.736Z,18.53
2022-12-26T07:31:17.785Z,17.60
2022-12-26T07:33:48.521Z,18.00
2022-12-26T07:36:16.909Z,17.90
2022-12-26T07:38:45.252Z,15.97
2022-12-26T07:41:30.844Z,17.23
2022-12-26T07:44:00.334Z,16.47
2022-12-26T07:46:28.424Z,17.53
2022-12-26T07:48:56.831Z,16.87
2022-12-26T07:51:25.227Z,16.10
2022-12-26T07:53:53.282Z,16.13
2022-12-26T07:56:21.526Z,16.47
2022-12-26T07:58:50.438Z,15.33
2022-12-26T08:01:20.707Z,14.97
2022-12-26T08:03:50.221Z,15.80
2022-12-26T08:06:18.525Z,15.03
2022-12-26T08:08:50.703Z,15.60
2022-12-26T08:11:21.760Z,15.43
2022-12-26T08:13:50.092Z,14.80
2022-12-26T08:16:20.342Z,15.73
2022-12-26T08:18:48.492Z,15.13
2022-12-26T08:21:16.967Z,15.33
2022-12-26T08:23:45.261Z,15.87
2022-12-26T08:26:20.810Z,15.50
2022-12-26T08:28:49.574Z,14.63
2022-12-26T08:31:20.553Z,15.93
2022-12-26T08:33:48.968Z,15.90
2022-12-26T08:36:19.385Z,15.07
2022-12-26T08:38:47.811Z,15.43
2022-12-26T08:41:17.603Z,15.33
2022-12-26T08:44:26.143Z,13.70
2022-12-26T08:46:38.343Z,14.63
2022-12-26T08:49:06.529Z,15.37
2022-12-26T08:51:34.583Z,14.60
2022-12-26T08:54:02.798Z,14.07
2022-12-26T08:56:31.623Z,14.77
2022-12-26T08:58:59.971Z,15.57
2022-12-26T09:01:30.928Z,16.27
2022-12-26T09:04:03.058Z,15.53
2022-12-26T09:06:33.620Z,15.10
2022-12-26T09:09:02.404Z,15.47
2022-12-26T09:11:31.072Z,16.23
2022-12-26T09:14:01.217Z,16.23
2022-12-26T09:16:37.481Z,16.13
2022-12-26T09:19:11.484Z,15.40
2022-12-26T09:21:42.309Z,19.90
2022-12-26T09:24:13.621Z,16.23
2022-12-26T09:26:43.872Z,15.60
2022-12-26T09:29:13.707Z,16.27
2022-12-26T09:31:47.948Z,16.83
2022-12-26T09:34:17.449Z,15.93
2022-12-26T09:36:48.383Z,15.47
2022-12-26T09:39:16.555Z,15.57
2022-12-26T09:41:58.372Z,15.67
2022-12-26T09:44:48.340Z,14.80
2022-12-26T09:47:30.651Z,14.33
2022-12-26T09:50:04.106Z,14.03
2022-12-26T09:52:41.792Z,13.52
2022-12-26T09:55:38.919Z,13.80
2022-12-26T09:58:16.834Z,13.17
2022-12-26T10:00:58.030Z,12.57
2022-12-26T10:03:26.844Z,13.40
2022-12-26T10:06:11.326Z,11.73
2022-12-26T10:09:23.351Z,12.93
2022-12-26T10:12:08.621Z,10.40
2022-12-26T10:14:54.839Z,9.50
2022-12-26T10:17:38.449Z,10.47
2022-12-26T10:20:22.501Z,9.37
2022-12-26T10:23:27.714Z,10.23
2022-12-26T10:26:02.742Z,8.37
2022-12-26T10:28:37.807Z,8.10
2022-12-26T10:31:13.507Z,8.10
2022-12-26T10:33:47.731Z,9.83
2022-12-26T10:36:23.635Z,8.73
2022-12-26T10:38:58.865Z,8.07
2022-12-26T10:41:33.081Z,7.30
2022-12-26T10:44:02.322Z,7.50
2022-12-26T10:46:57.371Z,7.27
2022-12-26T10:49:28.180Z,11.97
2022-12-26T10:52:02.366Z,6.13
2022-12-26T10:54:34.124Z,5.60
2022-12-26T10:57:04.075Z,6.50
2022-12-26T10:59:44.828Z,5.55
2022-12-26T11:02:17.623Z,6.53
2022-12-26T11:07:47.618Z,7.32
2022-12-26T11:10:19.944Z,6.80
2022-12-26T11:12:51.183Z,8.63
2022-12-26T11:15:24.609Z,5.67
2022-12-26T11:17:54.436Z,9.57
2022-12-26T11:20:31.749Z,5.47
2022-12-26T11:23:23.826Z,4.73
2022-12-26T11:25:55.034Z,3.93
2022-12-26T11:28:30.051Z,10.77
2022-12-26T11:30:58.389Z,6.65
2022-12-26T11:33:30.521Z,3.97
2022-12-26T11:36:12.701Z,6.10
2022-12-26T11:38:50.467Z,10.55
2022-12-26T11:41:34.583Z,4.00
2022-12-26T11:44:17.755Z,3.87
2022-12-26T11:46:51.029Z,3.70
2022-12-26T11:49:24.114Z,4.00
2022-12-26T11:51:58.710Z,3.77
2022-12-26T11:54:38.038Z,4.28
2022-12-26T11:57:30.490Z,3.70
2022-12-26T12:00:17.214Z,4.53
2022-12-26T12:02:46.133Z,2.87
2022-12-26T12:05:17.099Z,3.97
2022-12-26T12:08:05.160Z,3.13
2022-12-26T12:10:48.695Z,2.63
2022-12-26T12:13:28.509Z,2.20
2022-12-26T12:16:03.262Z,7.60
2022-12-26T12:18:43.533Z,1.20
2022-12-26T12:21:21.002Z,1.60
2022-12-26T12:24:09.877Z,1.43
2022-12-26T12:26:45.507Z,2.95
2022-12-26T12:29:35.592Z,4.13
2022-12-26T12:32:10.159Z,3.83
2022-12-26T12:35:06.021Z,1.80
2022-12-26T12:37:43.766Z,1.93
2022-12-26T12:40:26.934Z,1.67
2022-12-26T12:43:04.297Z,1.90
2022-12-26T12:45:40.922Z,4.03
2022-12-26T12:48:31.982Z,2.83
2022-12-26T12:51:13.091Z,2.10
2022-12-26T12:54:06.051Z,1.70
2022-12-26T12:56:43.151Z,3.53
2022-12-26T12:59:25.424Z,3.90
2022-12-26T13:02:05.483Z,1.43
2022-12-26T13:04:43.943Z,2.47
2022-12-26T13:07:22.880Z,1.70
2022-12-26T13:09:58.073Z,2.50
2022-12-26T13:12:31.096Z,4.97
2022-12-26T13:15:04.223Z,1.47
2022-12-26T13:17:41.043Z,1.90
2022-12-26T13:20:24.959Z,2.83
2022-12-26T13:23:14.050Z,5.33
2022-12-26T13:25:47.372Z,6.70
2022-12-26T13:28:24.749Z,7.43
2022-12-26T13:30:57.631Z,2.40
2022-12-26T13:33:30.446Z,3.77
2022-12-26T13:36:00.111Z,5.83
2022-12-26T13:39:10.517Z,2.93
2022-12-26T13:41:57.729Z,1.43
2022-12-26T13:44:28.953Z,5.07
2022-12-26T13:46:58.917Z,1.23
2022-12-26T13:49:31.671Z,1.50
2022-12-26T13:52:34.598Z,1.50
2022-12-26T13:55:43.291Z,1.40
2022-12-26T13:58:36.353Z,3.97
2022-12-26T14:01:12.749Z,1.50
2022-12-26T14:03:59.297Z,6.57
2022-12-26T14:07:06.758Z,4.03
2022-12-26T14:09:50.103Z,3.30
2022-12-26T14:12:40.316Z,4.67
2022-12-26T14:15:31.101Z,6.43
2022-12-26T14:20:49.117Z,1.90
2022-12-26T14:23:33.835Z,3.43
2022-12-26T14:26:14.891Z,6.83
2022-12-26T14:28:58.500Z,2.10
2022-12-26T14:31:38.236Z,9.87
2022-12-26T14:34:19.633Z,7.60
2022-12-26T14:36:58.635Z,6.07
2022-12-26T14:39:41.008Z,8.27
2022-12-26T14:42:37.381Z,4.07
2022-12-26T14:45:17.629Z,5.97
2022-12-26T14:47:51.339Z,8.03
2022-12-26T14:50:44.607Z,6.13
2022-12-26T14:53:45.358Z,4.53
2022-12-26T14:56:41.410Z,5.80
2022-12-26T14:59:36.101Z,7.97
2022-12-26T15:02:29.590Z,4.53
2022-12-26T15:05:15.107Z,6.47
2022-12-26T15:08:10.576Z,8.67
2022-12-26T15:11:09.919Z,4.40
2022-12-26T15:14:11.856Z,10.27
2022-12-26T15:16:54.821Z,12.97
2022-12-26T15:19:51.633Z,5.00
2022-12-26T15:22:52.128Z,3.70
2022-12-26T15:26:12.034Z,9.70
2022-12-26T15:29:20.395Z,5.00
2022-12-26T15:32:03.690Z,11.83
2022-12-26T15:34:44.719Z,6.53
2022-12-26T15:37:25.548Z,4.27
2022-12-26T15:40:04.476Z,4.97
2022-12-26T15:42:43.574Z,10.23
2022-12-26T15:45:38.705Z,5.67
2022-12-26T15:48:31.951Z,6.00
2022-12-26T15:51:03.551Z,6.83
2022-12-26T15:53:43.473Z,5.83
2022-12-26T15:56:43.065Z,4.93
2022-12-26T15:59:47.409Z,10.50
2022-12-26T16:02:36.335Z,8.23
2022-12-26T16:05:31.742Z,6.00
2022-12-26T16:08:23.491Z,8.87
2022-12-26T16:11:10.060Z,6.77
2022-12-26T16:13:49.448Z,15.10
2022-12-26T16:16:26.561Z,7.23
2022-12-26T16:18:56.769Z,7.43
2022-12-26T16:21:47.258Z,10.83
2022-12-26T16:24:19.927Z,10.53
2022-12-26T16:26:49.029Z,7.33
2022-12-26T16:29:20.150Z,8.83
2022-12-26T16:31:48.763Z,5.93
2022-12-26T16:34:24.040Z,10.60
2022-12-26T16:36:52.849Z,11.47
2022-12-26T16:39:23.767Z,6.23
2022-12-26T16:42:02.189Z,6.90
2022-12-26T16:44:33.478Z,7.33
2022-12-26T16:47:03.569Z,9.27
2022-12-26T16:49:35.203Z,5.73
2022-12-26T16:52:03.593Z,6.13
2022-12-26T16:54:39.410Z,11.17
2022-12-26T16:57:12.432Z,7.53
2022-12-26T16:59:53.071Z,7.97
2022-12-26T17:02:27.763Z,12.47
2022-12-26T17:05:02.842Z,6.37
2022-12-26T17:07:31.900Z,4.93
2022-12-26T17:10:01.650Z,11.77
2022-12-26T17:12:34.219Z,7.57
2022-12-26T17:15:04.865Z,7.23
2022-12-26T17:17:36.062Z,7.43
2022-12-26T17:20:37.233Z,9.80
2022-12-26T17:23:35.273Z,12.77
2022-12-26T17:26:25.439Z,5.77
2022-12-26T17:28:53.664Z,7.60
2022-12-26T17:31:31.533Z,6.93
2022-12-26T17:34:00.726Z,26.13
2022-12-26T17:39:25.208Z,15.70
2022-12-26T17:41:55.675Z,7.97
2022-12-26T17:44:37.856Z,11.27
2022-12-26T17:47:17.227Z,7.30
2022-12-26T17:49:45.737Z,9.17
2022-12-26T17:52:17.802Z,5.27
2022-12-26T17:54:46.186Z,6.50
2022-12-26T17:57:19.567Z,13.90
2022-12-26T17:59:49.282Z,11.03
2022-12-26T18:02:18.288Z,12.13
2022-12-26T18:04:48.764Z,12.10
2022-12-26T18:32:47.998Z,13.60
2022-12-26T18:38:16.336Z,15.87
2022-12-26T18:40:58.695Z,5.17
2022-12-26T18:43:27.393Z,12.73
2022-12-26T18:46:17.613Z,7.07
2022-12-26T18:51:30.756Z,11.40
2022-12-26T18:54:02.308Z,4.53
2022-12-26T18:56:31.210Z,8.70
2022-12-26T18:59:02.743Z,3.23
2022-12-26T19:01:39.444Z,5.40
2022-12-26T19:04:33.335Z,7.53
2022-12-26T19:07:03.531Z,6.50
2022-12-26T19:09:32.296Z,7.30
2022-12-26T19:12:00.476Z,13.50
2022-12-26T19:14:28.733Z,6.10
2022-12-26T19:16:56.887Z,3.90
2022-12-26T19:19:26.639Z,12.03
2022-12-26T19:21:57.597Z,5.77
2022-12-26T19:24:27.575Z,9.50
2022-12-26T19:26:55.704Z,5.53
2022-12-26T19:29:24.037Z,8.10
2022-12-26T19:31:52.334Z,5.77
2022-12-26T19:34:20.749Z,4.47
2022-12-26T19:36:49.293Z,8.07
2022-12-26T19:39:21.111Z,4.67
2022-12-26T19:41:53.236Z,10.00
2022-12-26T19:44:21.741Z,4.07
2022-12-26T19:46:50.087Z,11.90
2022-12-26T19:49:38.399Z,4.57
2022-12-26T19:52:06.552Z,10.40
2022-12-26T19:54:41.094Z,6.93
2022-12-26T19:57:10.655Z,5.77
2022-12-26T19:59:39.035Z,7.33
2022-12-26T20:02:07.408Z,3.93
2022-12-26T20:04:35.751Z,8.83
2022-12-26T20:07:04.307Z,7.67
2022-12-26T20:09:32.570Z,12.97
2022-12-26T20:12:01.625Z,11.60
2022-12-26T20:14:32.624Z,8.10
2022-12-26T20:17:05.532Z,10.30
2022-12-26T20:19:35.125Z,13.13
2022-12-26T20:22:03.408Z,8.90
2022-12-26T20:24:31.986Z,6.60
2022-12-26T20:27:00.501Z,5.73
2022-12-26T20:29:30.270Z,7.90
2022-12-26T20:31:59.190Z,5.90
2022-12-26T20:34:27.727Z,7.53
2022-12-26T20:36:55.957Z,3.20
2022-12-26T20:39:25.503Z,4.23
2022-12-26T20:41:53.660Z,3.27
2022-12-26T20:44:22.155Z,11.63
2022-12-26T20:46:51.868Z,6.30
2022-12-26T20:49:26.166Z,6.10
2022-12-26T20:51:54.742Z,5.70
2022-12-26T20:54:30.676Z,11.37
2022-12-26T20:56:58.693Z,5.13
2022-12-26T20:59:27.861Z,5.33
2022-12-26T21:01:57.483Z,4.93
2022-12-26T21:04:25.679Z,6.00
2022-12-26T21:06:54.331Z,9.20
2022-12-26T21:09:22.525Z,3.33
2022-12-26T21:11:50.939Z,6.10
2022-12-26T21:14:21.677Z,6.57
2022-12-26T21:16:52.669Z,6.30
2022-12-26T21:19:23.948Z,3.93
2022-12-26T21:21:54.572Z,4.40
2022-12-26T21:24:25.190Z,6.00
2022-12-26T21:26:53.645Z,10.53
2022-12-26T21:29:24.742Z,4.63
2022-12-26T21:31:54.269Z,4.20
2022-12-26T21:34:31.169Z,4.60
2022-12-26T21:37:17.472Z,3.93
2022-12-26T21:39:47.227Z,6.20
2022-12-26T21:42:15.712Z,5.20
2022-12-26T21:44:44.094Z,3.87
2022-12-26T21:47:12.433Z,5.97
2022-12-26T21:49:42.707Z,4.07
2022-12-26T21:52:12.633Z,11.90
2022-12-26T21:54:58.214Z,10.53
2022-12-26T21:57:26.797Z,3.63
2022-12-26T21:59:57.820Z,4.80
2022-12-26T22:02:45.561Z,4.80
2022-12-26T22:05:15.486Z,2.00
2022-12-26T22:07:44.079Z,11.07
2022-12-26T22:10:35.549Z,8.20
2022-12-26T22:13:04.236Z,2.83
2022-12-26T22:15:52.645Z,5.70
2022-12-26T22:18:20.853Z,3.80
2022-12-26T22:20:50.274Z,5.77
2022-12-26T22:23:18.749Z,7.03
2022-12-26T22:25:54.378Z,3.23
2022-12-26T22:28:23.551Z,8.20
2022-12-26T22:30:52.366Z,4.40
2022-12-26T22:33:21.243Z,10.10
2022-12-26T22:35:50.874Z,11.00
2022-12-26T22:38:19.666Z,5.80
2022-12-26T22:40:59.268Z,6.87
2022-12-26T22:43:28.279Z,2.87
2022-12-26T22:46:01.917Z,5.50
2022-12-26T22:48:30.208Z,6.17
2022-12-26T22:51:00.100Z,4.93
2022-12-26T22:53:29.913Z,4.80
2022-12-26T22:56:02.827Z,10.67
2022-12-26T22:58:31.818Z,9.87
2022-12-26T23:01:00.710Z,4.13
2022-12-26T23:03:29.614Z,2.10
2022-12-26T23:06:00.397Z,2.77
2022-12-26T23:08:29.326Z,2.53
2022-12-26T23:10:59.877Z,4.97
2022-12-26T23:13:29.838Z,4.20
2022-12-26T23:16:07.286Z,6.67
2022-12-26T23:18:59.021Z,4.63
2022-12-26T23:21:45.939Z,3.93
2022-12-26T23:24:17.696Z,13.00
2022-12-26T23:26:48.552Z,7.47
2022-12-26T23:29:36.241Z,7.43
2022-12-26T23:32:04.941Z,5.47
2022-12-26T23:34:33.187Z,2.63
2022-12-26T23:37:03.492Z,3.37
2022-12-26T23:39:31.674Z,2.13
2022-12-26T23:41:59.858Z,2.53
2022-12-26T23:44:28.082Z,2.50
2022-12-26T23:46:56.505Z,3.40
2022-12-26T23:49:24.711Z,3.97
2022-12-26T23:51:52.891Z,7.73
2022-12-26T23:54:22.315Z,3.40
2022-12-26T23:56:50.365Z,3.13
2022-12-26T23:59:18.539Z,4.77
